Time;durP1;ratioP1;P1;durP2;ratioP2;P2;SDS_P1;SDS_P2;PMS_P1;PMS_P2;Temp;Humidity;BMP_temperature;BMP_pressure;BME280_temperature;BME280_humidity;BME280_pressure;Samples;Min_cycle;Max_cycle;Signal;HPM_P1;HPM_P2
2021/06/11 00:00:00;;;;;;;18.57;16.87;;;;;;;;;;5052022;28;20431;-74
2021/06/11 00:02:26;;;;;;;19.83;17.90;;;;;;;;;;5051728;28;20497;-75
2021/06/11 00:04:52;;;;;;;17.77;16.07;;;;;;;;;;5059998;28;20483;-75
2021/06/11 00:07:18;;;;;;;17.67;16.07;;;;;;;;;;5068520;28;20490;-74
2021/06/11 00:09:44;;;;;;;18.83;17.10;;;;;;;;;;5052007;28;20431;-75
2021/06/11 00:12:13;;;;;;;18.87;17.00;;;;;;;;;;5064128;28;20435;-74
2021/06/11 00:14:39;;;;;;;20.23;18.33;;;;;;;;;;5051804;28;20439;-74
2021/06/11 00:17:05;;;;;;;18.13;16.33;;;;;;;;;;5051957;28;20415;-74
2021/06/11 00:19:31;;;;;;;18.23;16.33;;;;;;;;;;5051876;28;20780;-74
2021/06/11 00:21:57;;;;;;;19.23;16.93;;;;;;;;;;5051788;28;20462;-75
2021/06/11 00:24:23;;;;;;;17.97;16.27;;;;;;;;;;5059306;28;20410;-75
2021/06/11 00:26:49;;;;;;;17.67;15.97;;;;;;;;;;5052815;28;20411;-74
2021/06/11 00:29:15;;;;;;;19.57;17.47;;;;;;;;;;5061219;28;20958;-74
2021/06/11 00:31:41;;;;;;;19.93;18.03;;;;;;;;;;5055475;28;20431;-76
2021/06/11 00:34:07;;;;;;;18.83;17.07;;;;;;;;;;5055578;28;20416;-72
2021/06/11 00:36:33;;;;;;;21.27;19.17;;;;;;;;;;5055554;28;20824;-74
2021/06/11 00:38:59;;;;;;;20.47;18.40;;;;;;;;;;5055406;28;20423;-75
2021/06/11 00:41:25;;;;;;;20.30;18.40;;;;;;;;;;5074046;28;20989;-73
2021/06/11 00:43:51;;;;;;;20.50;18.50;;;;;;;;;;5075322;28;20446;-76
2021/06/11 00:46:17;;;;;;;18.73;16.97;;;;;;;;;;5075330;28;20445;-75
2021/06/11 00:48:43;;;;;;;18.33;16.60;;;;;;;;;;5075413;28;20442;-75
2021/06/11 00:51:09;;;;;;;20.20;18.17;;;;;;;;;;5075239;28;20537;-74
2021/06/11 00:53:35;;;;;;;18.67;17.03;;;;;;;;;;5074998;28;20418;-75
2021/06/11 00:56:01;;;;;;;20.20;18.40;;;;;;;;;;5075031;28;20437;-75
2021/06/11 00:58:28;;;;;;;19.67;17.77;;;;;;;;;;5074943;28;20423;-75
2021/06/11 01:00:54;;;;;;;19.30;17.40;;;;;;;;;;5058374;28;20434;-75
2021/06/11 01:03:20;;;;;;;20.90;18.90;;;;;;;;;;5054757;28;20512;-76
2021/06/11 01:05:46;;;;;;;17.50;15.80;;;;;;;;;;5054905;28;20480;-75
2021/06/11 01:08:12;;;;;;;20.60;18.67;;;;;;;;;;5054726;28;20485;-75
2021/06/11 01:10:39;;;;;;;20.60;18.50;;;;;;;;;;5054852;28;20442;-74
2021/06/11 01:13:06;;;;;;;19.50;17.80;;;;;;;;;;5054512;28;20419;-74
2021/06/11 01:15:32;;;;;;;19.20;17.40;;;;;;;;;;5054938;28;20453;-76
2021/06/11 01:17:58;;;;;;;22.23;19.93;;;;;;;;;;5054503;28;20416;-75
2021/06/11 01:20:24;;;;;;;21.27;19.27;;;;;;;;;;5054642;28;20421;-74
2021/06/11 01:23:09;;;;;;;22.67;20.43;;;;;;;;;;5054283;28;20450;-72
2021/06/11 01:25:35;;;;;;;21.33;19.20;;;;;;;;;;5055266;28;20411;-73
2021/06/11 01:28:02;;;;;;;22.37;20.20;;;;;;;;;;5058930;28;20402;-72
2021/06/11 01:30:29;;;;;;;23.00;20.37;;;;;;;;;;5054961;28;20419;-73
2021/06/11 01:32:56;;;;;;;21.53;19.53;;;;;;;;;;5054118;28;20414;-74
2021/06/11 01:35:24;;;;;;;26.83;24.03;;;;;;;;;;5054290;28;20419;-75
2021/06/11 01:37:55;;;;;;;22.17;20.00;;;;;;;;;;5053995;28;20407;-74
2021/06/11 01:40:21;;;;;;;24.77;22.00;;;;;;;;;;5064214;28;20421;-74
2021/06/11 01:42:48;;;;;;;25.60;23.03;;;;;;;;;;5073896;28;20503;-74
2021/06/11 01:45:14;;;;;;;25.40;23.00;;;;;;;;;;5074070;28;20486;-75
2021/06/11 01:47:45;;;;;;;26.67;24.10;;;;;;;;;;5073910;28;20404;-74
2021/06/11 01:50:12;;;;;;;25.80;23.27;;;;;;;;;;5073979;28;20921;-76
2021/06/11 01:52:38;;;;;;;27.10;24.43;;;;;;;;;;5059991;28;20441;-75
2021/06/11 01:55:06;;;;;;;26.90;24.23;;;;;;;;;;5053869;28;20413;-75
2021/06/11 01:57:33;;;;;;;25.80;23.20;;;;;;;;;;5053641;28;20427;-74
2021/06/11 02:00:00;;;;;;;27.17;24.50;;;;;;;;;;5055278;28;20421;-74
2021/06/11 02:02:26;;;;;;;27.23;24.33;;;;;;;;;;5053708;28;20467;-75
2021/06/11 02:04:52;;;;;;;27.50;24.67;;;;;;;;;;5053646;28;20410;-74
2021/06/11 02:07:19;;;;;;;25.37;22.80;;;;;;;;;;5053456;28;20523;-75
2021/06/11 02:09:47;;;;;;;26.00;23.50;;;;;;;;;;5053512;28;20495;-75
2021/06/11 02:12:13;;;;;;;25.93;23.40;;;;;;;;;;5056139;28;20910;-74
2021/06/11 02:14:39;;;;;;;25.67;23.07;;;;;;;;;;5053530;28;20410;-75
2021/06/11 02:17:07;;;;;;;24.27;21.80;;;;;;;;;;5053590;28;20418;-73
2021/06/11 02:19:37;;;;;;;22.80;20.43;;;;;;;;;;5052998;28;20417;-74
2021/06/11 02:22:04;;;;;;;23.13;20.77;;;;;;;;;;5053499;28;20473;-75
2021/06/11 02:24:30;;;;;;;22.73;20.43;;;;;;;;;;5053392;28;20408;-75
2021/06/11 02:26:56;;;;;;;22.60;20.30;;;;;;;;;;5053577;28;20797;-75
2021/06/11 02:29:22;;;;;;;22.03;19.83;;;;;;;;;;5059378;28;20415;-74
2021/06/11 02:31:48;;;;;;;20.60;18.50;;;;;;;;;;5053036;28;20440;-74
2021/06/11 02:34:15;;;;;;;20.20;18.20;;;;;;;;;;5053121;28;20493;-74
2021/06/11 02:36:41;;;;;;;19.93;17.93;;;;;;;;;;5053665;28;20419;-74
2021/06/11 02:39:07;;;;;;;20.70;18.60;;;;;;;;;;5053390;28;20419;-74
2021/06/11 02:41:36;;;;;;;20.27;18.27;;;;;;;;;;5069653;28;20880;-76
2021/06/11 02:44:03;;;;;;;21.00;19.00;;;;;;;;;;5052849;28;20773;-75
2021/06/11 02:46:33;;;;;;;20.83;18.37;;;;;;;;;;5053281;28;20410;-75
2021/06/11 02:49:08;;;;;;;20.80;18.77;;;;;;;;;;5052861;28;20788;-75
2021/06/11 02:51:37;;;;;;;19.97;17.97;;;;;;;;;;5052039;28;20430;-74
2021/06/11 02:54:03;;;;;;;20.80;18.77;;;;;;;;;;5052711;28;20417;-75
2021/06/11 02:56:58;;;;;;;19.73;17.70;;;;;;;;;;5052930;28;20408;-75
2021/06/11 02:59:27;;;;;;;18.93;17.13;;;;;;;;;;5052604;28;20409;-74
2021/06/11 03:01:57;;;;;;;19.90;18.10;;;;;;;;;;5052876;28;20762;-74
2021/06/11 03:04:23;;;;;;;18.23;16.43;;;;;;;;;;5052917;28;20412;-74
2021/06/11 03:06:50;;;;;;;20.63;18.63;;;;;;;;;;5052696;28;20451;-75
2021/06/11 03:09:20;;;;;;;20.23;18.23;;;;;;;;;;5052922;28;20772;-75
2021/06/11 03:11:46;;;;;;;19.00;17.10;;;;;;;;;;5053329;28;20903;-75
2021/06/11 03:14:13;;;;;;;20.27;18.27;;;;;;;;;;5053498;28;20419;-75
2021/06/11 03:16:41;;;;;;;19.73;17.87;;;;;;;;;;5052979;28;20433;-75
2021/06/11 03:19:10;;;;;;;20.70;18.00;;;;;;;;;;5052481;28;20425;-74
2021/06/11 03:21:38;;;;;;;21.10;18.90;;;;;;;;;;5052487;28;20434;-76
2021/06/11 03:24:05;;;;;;;19.40;17.37;;;;;;;;;;5052111;28;20414;-74
2021/06/11 03:26:35;;;;;;;22.40;20.10;;;;;;;;;;5052829;28;20773;-75
2021/06/11 03:29:03;;;;;;;20.90;18.63;;;;;;;;;;5058412;28;20430;-73
2021/06/11 03:31:33;;;;;;;21.37;19.20;;;;;;;;;;5052392;28;20495;-74
2021/06/11 03:34:02;;;;;;;17.17;15.43;;;;;;;;;;5052146;28;20414;-73
2021/06/11 03:36:30;;;;;;;19.63;17.53;;;;;;;;;;5052431;28;20405;-74
2021/06/11 03:38:58;;;;;;;21.87;19.70;;;;;;;;;;5052406;28;20417;-75
2021/06/11 03:41:24;;;;;;;19.30;17.37;;;;;;;;;;5055817;28;20430;-73
2021/06/11 03:43:51;;;;;;;18.20;16.43;;;;;;;;;;5052204;28;20462;-76
2021/06/11 03:46:17;;;;;;;19.97;18.07;;;;;;;;;;5052122;28;20471;-73
2021/06/11 03:48:45;;;;;;;20.43;18.23;;;;;;;;;;5052105;28;20458;-73
2021/06/11 03:51:12;;;;;;;20.37;18.40;;;;;;;;;;5052546;28;20438;-74
2021/06/11 03:53:38;;;;;;;22.13;19.90;;;;;;;;;;5052277;28;20455;-74
2021/06/11 03:56:06;;;;;;;21.30;19.20;;;;;;;;;;5052197;28;20807;-74
2021/06/11 03:58:36;;;;;;;22.33;20.10;;;;;;;;;;5051928;28;20974;-74
2021/06/11 04:01:03;;;;;;;23.47;21.17;;;;;;;;;;5053215;28;20527;-74
2021/06/11 04:03:29;;;;;;;21.17;18.97;;;;;;;;;;5055556;28;20456;-74
2021/06/11 04:06:04;;;;;;;24.10;21.70;;;;;;;;;;5056138;28;20520;-73
2021/06/11 04:08:33;;;;;;;25.17;22.67;;;;;;;;;;5055971;28;20420;-75
2021/06/11 04:11:00;;;;;;;23.13;20.93;;;;;;;;;;5056068;28;20434;-75
2021/06/11 04:13:26;;;;;;;28.97;26.13;;;;;;;;;;5057857;28;20414;-74
2021/06/11 04:15:54;;;;;;;26.57;23.73;;;;;;;;;;5055780;28;20912;-74
2021/06/11 04:18:27;;;;;;;26.27;23.67;;;;;;;;;;5055686;28;20746;-74
2021/06/11 04:20:55;;;;;;;32.37;28.57;;;;;;;;;;5055931;28;20430;-74
2021/06/11 04:23:27;;;;;;;29.33;26.23;;;;;;;;;;5055607;28;20466;-72
2021/06/11 04:25:56;;;;;;;31.33;28.03;;;;;;;;;;5055688;28;20780;-74
2021/06/11 04:28:23;;;;;;;29.43;26.17;;;;;;;;;;5061182;28;20901;-75
2021/06/11 04:30:51;;;;;;;28.60;25.53;;;;;;;;;;5055595;28;20446;-75
2021/06/11 04:33:20;;;;;;;28.67;25.77;;;;;;;;;;5055746;28;20415;-74
2021/06/11 04:35:46;;;;;;;33.20;29.80;;;;;;;;;;5055856;28;20418;-75
2021/06/11 04:38:14;;;;;;;32.73;27.20;;;;;;;;;;5055563;28;20768;-76
2021/06/11 04:40:40;;;;;;;32.50;29.20;;;;;;;;;;5068103;28;20930;-75
2021/06/11 04:43:06;;;;;;;33.00;29.60;;;;;;;;;;5075011;28;20461;-73
2021/06/11 04:45:32;;;;;;;32.47;29.07;;;;;;;;;;5075393;28;20941;-73
2021/06/11 04:47:59;;;;;;;35.87;32.07;;;;;;;;;;5075112;28;20463;-75
2021/06/11 04:50:25;;;;;;;32.40;29.00;;;;;;;;;;5075346;28;20416;-75
2021/06/11 04:52:51;;;;;;;37.83;33.93;;;;;;;;;;5075017;28;20417;-74
2021/06/11 04:55:17;;;;;;;37.10;33.10;;;;;;;;;;5075185;28;20417;-74
2021/06/11 04:57:43;;;;;;;38.20;33.83;;;;;;;;;;5074844;28;20503;-75
2021/06/11 05:00:10;;;;;;;39.50;35.37;;;;;;;;;;5065787;28;20500;-74
2021/06/11 05:02:36;;;;;;;37.53;33.70;;;;;;;;;;5055037;28;20479;-74
2021/06/11 05:05:02;;;;;;;37.13;33.23;;;;;;;;;;5054577;28;20590;-75
2021/06/11 05:07:28;;;;;;;37.97;34.07;;;;;;;;;;5054884;28;20450;-75
2021/06/11 05:09:54;;;;;;;37.13;33.33;;;;;;;;;;5054789;28;20410;-74
2021/06/11 05:12:20;;;;;;;33.80;30.47;;;;;;;;;;5056930;28;20827;-73
2021/06/11 05:14:46;;;;;;;36.13;32.43;;;;;;;;;;5053308;28;20423;-74
2021/06/11 05:17:12;;;;;;;34.47;30.83;;;;;;;;;;5054989;28;20418;-75
2021/06/11 05:19:39;;;;;;;32.37;29.27;;;;;;;;;;5054609;28;20410;-74
2021/06/11 05:22:06;;;;;;;29.53;26.60;;;;;;;;;;5054884;28;20467;-73
2021/06/11 05:24:32;;;;;;;30.20;27.00;;;;;;;;;;5054353;28;20419;-75
2021/06/11 05:26:58;;;;;;;28.83;25.93;;;;;;;;;;5054455;28;20781;-75
2021/06/11 05:29:24;;;;;;;27.23;24.50;;;;;;;;;;5059377;28;20763;-75
2021/06/11 05:31:50;;;;;;;22.37;19.97;;;;;;;;;;5054542;28;20438;-74
2021/06/11 05:34:16;;;;;;;23.03;20.77;;;;;;;;;;5054628;28;20472;-73
2021/06/11 05:36:42;;;;;;;18.73;16.87;;;;;;;;;;5054629;28;20450;-75
2021/06/11 05:39:08;;;;;;;23.50;21.10;;;;;;;;;;5054583;28;20439;-75
2021/06/11 05:41:34;;;;;;;22.60;20.50;;;;;;;;;;5073934;28;20442;-76
2021/06/11 05:44:00;;;;;;;22.77;20.70;;;;;;;;;;5074420;28;20567;-74
2021/06/11 05:46:27;;;;;;;23.60;21.40;;;;;;;;;;5074103;28;20419;-75
2021/06/11 05:48:53;;;;;;;23.77;21.53;;;;;;;;;;5073983;28;20438;-74
2021/06/11 05:51:19;;;;;;;23.33;21.13;;;;;;;;;;5074036;28;20430;-75
2021/06/11 05:53:45;;;;;;;19.83;17.87;;;;;;;;;;5074013;28;20402;-74
2021/06/11 05:56:12;;;;;;;19.63;17.83;;;;;;;;;;5074016;28;20414;-74
2021/06/11 05:58:38;;;;;;;20.20;17.67;;;;;;;;;;5073989;28;20414;-76
2021/06/11 06:01:06;;;;;;;19.30;17.40;;;;;;;;;;5056315;28;20839;-76
2021/06/11 06:03:32;;;;;;;17.43;15.63;;;;;;;;;;5053582;28;20808;-75
2021/06/11 06:05:58;;;;;;;21.47;19.37;;;;;;;;;;5053629;28;20429;-74
2021/06/11 06:08:24;;;;;;;21.70;19.60;;;;;;;;;;5053524;28;20415;-75
2021/06/11 06:10:50;;;;;;;20.53;18.50;;;;;;;;;;5053500;28;20436;-76
2021/06/11 06:13:16;;;;;;;18.33;16.73;;;;;;;;;;5055535;28;20446;-74
2021/06/11 06:15:43;;;;;;;20.10;18.30;;;;;;;;;;5053827;28;20424;-75
2021/06/11 06:18:09;;;;;;;20.90;18.97;;;;;;;;;;5053538;28;20408;-75
2021/06/11 06:20:37;;;;;;;19.33;17.53;;;;;;;;;;5054057;28;20417;-74
2021/06/11 06:23:03;;;;;;;20.50;18.60;;;;;;;;;;5053718;28;20502;-75
2021/06/11 06:25:29;;;;;;;20.20;18.30;;;;;;;;;;5053167;28;20435;-74
2021/06/11 06:27:55;;;;;;;19.13;17.33;;;;;;;;;;5057010;28;20820;-74
2021/06/11 06:30:23;;;;;;;16.07;14.67;;;;;;;;;;5055007;28;20416;-75
2021/06/11 06:32:49;;;;;;;18.50;16.67;;;;;;;;;;5053655;28;20421;-75
2021/06/11 06:35:16;;;;;;;16.90;15.20;;;;;;;;;;5057794;28;20410;-75
2021/06/11 06:37:42;;;;;;;18.53;16.43;;;;;;;;;;5059244;28;20411;-75
2021/06/11 06:40:08;;;;;;;20.37;18.47;;;;;;;;;;5059572;28;20422;-74
2021/06/11 06:42:35;;;;;;;17.57;15.93;;;;;;;;;;5057622;28;20471;-76
2021/06/11 06:45:01;;;;;;;19.00;17.20;;;;;;;;;;5055389;28;20425;-74
2021/06/11 06:47:27;;;;;;;19.37;17.53;;;;;;;;;;5062327;28;20432;-75
2021/06/11 06:49:53;;;;;;;16.83;15.10;;;;;;;;;;5054795;28;20420;-75
2021/06/11 06:52:20;;;;;;;16.73;15.23;;;;;;;;;;5059932;28;20460;-74
2021/06/11 06:54:46;;;;;;;12.90;11.70;;;;;;;;;;5063299;28;20419;-75
2021/06/11 06:57:12;;;;;;;12.37;11.37;;;;;;;;;;5057559;28;20422;-75
2021/06/11 06:59:38;;;;;;;12.20;11.10;;;;;;;;;;5054755;28;20446;-75
2021/06/11 07:02:04;;;;;;;12.23;11.13;;;;;;;;;;5057503;28;20886;-74
2021/06/11 07:04:30;;;;;;;13.40;12.00;;;;;;;;;;5048950;28;20915;-76
2021/06/11 07:06:57;;;;;;;11.83;10.73;;;;;;;;;;5048698;28;20425;-76
2021/06/11 07:09:23;;;;;;;13.27;11.93;;;;;;;;;;5048689;28;20439;-76
2021/06/11 07:11:49;;;;;;;11.93;10.70;;;;;;;;;;5048713;28;20430;-74
2021/06/11 07:14:19;;;;;;;11.30;10.07;;;;;;;;;;5048771;28;20936;-74
2021/06/11 07:16:46;;;;;;;7.03;6.43;;;;;;;;;;5048988;28;20410;-74
2021/06/11 07:19:12;;;;;;;10.20;9.30;;;;;;;;;;5048679;28;20521;-74
2021/06/11 07:21:38;;;;;;;9.17;8.47;;;;;;;;;;5056436;28;20442;-73
2021/06/11 07:24:05;;;;;;;8.77;8.07;;;;;;;;;;5068653;28;20429;-73
2021/06/11 07:26:31;;;;;;;12.87;9.40;;;;;;;;;;5068800;28;20414;-75
2021/06/11 07:28:57;;;;;;;8.67;7.80;;;;;;;;;;5058361;28;20495;-74
2021/06/11 07:31:25;;;;;;;9.10;8.30;;;;;;;;;;5048539;28;21062;-75
2021/06/11 07:33:51;;;;;;;10.20;9.20;;;;;;;;;;5059090;28;20769;-74
2021/06/11 07:36:17;;;;;;;10.40;9.40;;;;;;;;;;5049902;28;20477;-75
2021/06/11 07:38:43;;;;;;;10.90;10.00;;;;;;;;;;5055252;28;20754;-75
2021/06/11 07:41:09;;;;;;;10.37;9.47;;;;;;;;;;5072498;28;20471;-76
2021/06/11 07:43:35;;;;;;;12.53;11.23;;;;;;;;;;5064493;28;20463;-75
2021/06/11 07:46:01;;;;;;;12.00;10.90;;;;;;;;;;5055059;28;20953;-74
2021/06/11 07:48:27;;;;;;;11.07;10.13;;;;;;;;;;5053555;28;20909;-76
2021/06/11 07:50:53;;;;;;;8.83;8.13;;;;;;;;;;5055060;28;20800;-75
2021/06/11 07:53:23;;;;;;;8.30;7.50;;;;;;;;;;5062639;28;20429;-76
2021/06/11 07:55:49;;;;;;;7.67;6.97;;;;;;;;;;5057379;28;20459;-76
2021/06/11 07:58:15;;;;;;;6.67;6.17;;;;;;;;;;5057682;28;20838;-74
2021/06/11 08:00:41;;;;;;;7.70;7.10;;;;;;;;;;5070885;28;20439;-76
2021/06/11 08:03:07;;;;;;;8.50;7.80;;;;;;;;;;5054644;28;20458;-77
2021/06/11 08:05:33;;;;;;;8.47;7.87;;;;;;;;;;5054161;28;20928;-76
2021/06/11 08:07:59;;;;;;;8.90;8.20;;;;;;;;;;5054772;28;20939;-75
2021/06/11 08:10:26;;;;;;;9.80;8.90;;;;;;;;;;5054933;28;20438;-76
2021/06/11 08:12:52;;;;;;;8.77;8.10;;;;;;;;;;5054954;28;20412;-75
2021/06/11 08:15:18;;;;;;;12.07;10.87;;;;;;;;;;5055031;28;20456;-75
2021/06/11 08:17:44;;;;;;;10.07;8.67;;;;;;;;;;5054692;28;20784;-75
2021/06/11 08:20:11;;;;;;;8.07;7.47;;;;;;;;;;5055396;28;20434;-75
2021/06/11 08:22:38;;;;;;;8.90;8.20;;;;;;;;;;5071291;28;20473;-74
2021/06/11 08:25:05;;;;;;;7.97;7.30;;;;;;;;;;5074930;28;20406;-75
2021/06/11 08:27:31;;;;;;;8.93;8.17;;;;;;;;;;5074737;28;20435;-75
2021/06/11 08:29:57;;;;;;;7.07;6.47;;;;;;;;;;5056637;28;20447;-76
2021/06/11 08:32:23;;;;;;;8.80;8.00;;;;;;;;;;5060111;28;20473;-77
2021/06/11 08:34:49;;;;;;;8.23;7.53;;;;;;;;;;5074832;28;20426;-76
2021/06/11 08:37:16;;;;;;;8.10;7.30;;;;;;;;;;5074788;28;20421;-76
2021/06/11 08:39:42;;;;;;;8.53;7.50;;;;;;;;;;5074535;28;20479;-76
2021/06/11 08:42:08;;;;;;;8.20;7.30;;;;;;;;;;5074482;28;20461;-77
2021/06/11 08:44:35;;;;;;;9.33;7.60;;;;;;;;;;5059857;28;20761;-76
2021/06/11 08:47:01;;;;;;;8.87;8.10;;;;;;;;;;5074487;28;20862;-76
2021/06/11 08:49:27;;;;;;;6.97;6.37;;;;;;;;;;5071092;28;20810;-75
2021/06/11 08:51:59;;;;;;;7.40;6.80;;;;;;;;;;5071326;28;20422;-75
2021/06/11 08:54:26;;;;;;;6.70;6.20;;;;;;;;;;5063069;28;20437;-77
2021/06/11 08:56:53;;;;;;;6.80;6.30;;;;;;;;;;5051532;28;20412;-77
2021/06/11 08:59:19;;;;;;;7.07;6.57;;;;;;;;;;5055043;28;20437;-77
2021/06/11 09:01:45;;;;;;;6.60;6.00;;;;;;;;;;5057319;28;20439;-74
2021/06/11 09:04:11;;;;;;;7.00;6.37;;;;;;;;;;5051089;28;20430;-74
2021/06/11 09:06:37;;;;;;;6.37;5.87;;;;;;;;;;5051144;28;20431;-75
2021/06/11 09:09:05;;;;;;;6.03;5.53;;;;;;;;;;5050794;28;20498;-75
2021/06/11 09:11:32;;;;;;;6.63;6.23;;;;;;;;;;5051223;28;20471;-75
2021/06/11 09:14:04;;;;;;;5.53;5.10;;;;;;;;;;5050714;28;20419;-76
2021/06/11 09:16:41;;;;;;;5.40;5.00;;;;;;;;;;5050951;28;20780;-76
2021/06/11 09:19:07;;;;;;;8.57;7.70;;;;;;;;;;5050721;28;20415;-75
2021/06/11 09:21:33;;;;;;;11.10;5.93;;;;;;;;;;5055291;28;20858;-76
2021/06/11 09:24:31;;;;;;;7.10;6.60;;;;;;;;;;5050705;28;20467;-75
2021/06/11 09:26:58;;;;;;;7.70;7.00;;;;;;;;;;5050765;28;20415;-75
2021/06/11 09:29:43;;;;;;;6.07;5.57;;;;;;;;;;5052203;28;20524;-76
2021/06/11 09:32:11;;;;;;;6.60;6.00;;;;;;;;;;5057576;28;20449;-75
2021/06/11 09:34:37;;;;;;;6.50;5.90;;;;;;;;;;5055919;28;20422;-75
2021/06/11 09:37:04;;;;;;;6.73;6.10;;;;;;;;;;5050571;28;20442;-75
2021/06/11 09:39:48;;;;;;;6.00;5.60;;;;;;;;;;5050496;28;20420;-73
2021/06/11 09:42:16;;;;;;;12.00;8.17;;;;;;;;;;5050724;28;20494;-75
2021/06/11 09:44:49;;;;;;;9.87;6.97;;;;;;;;;;5050442;28;20806;-75
2021/06/11 09:47:29;;;;;;;7.27;6.67;;;;;;;;;;5061686;28;20641;-74
2021/06/11 09:49:55;;;;;;;6.90;6.20;;;;;;;;;;5050349;28;20415;-76
2021/06/11 09:52:21;;;;;;;7.83;6.70;;;;;;;;;;5050427;28;20924;-76
2021/06/11 09:54:47;;;;;;;9.43;8.53;;;;;;;;;;5050112;28;20446;-75
2021/06/11 09:57:24;;;;;;;7.30;6.60;;;;;;;;;;5050164;28;20804;-74
2021/06/11 09:59:52;;;;;;;7.93;5.83;;;;;;;;;;5057041;28;20406;-76
2021/06/11 10:02:20;;;;;;;5.37;4.97;;;;;;;;;;5052075;28;21062;-75
2021/06/11 10:04:46;;;;;;;6.90;6.40;;;;;;;;;;5049914;28;20424;-76
2021/06/11 10:07:13;;;;;;;5.87;5.37;;;;;;;;;;5049905;28;20462;-74
2021/06/11 10:09:39;;;;;;;5.73;5.23;;;;;;;;;;5049766;28;20407;-76
2021/06/11 10:12:06;;;;;;;5.60;5.20;;;;;;;;;;5049806;28;20526;-75
2021/06/11 10:14:32;;;;;;;6.90;6.27;;;;;;;;;;5049703;28;20904;-75
2021/06/11 10:16:58;;;;;;;6.13;5.70;;;;;;;;;;5049866;28;20419;-74
2021/06/11 10:19:28;;;;;;;7.13;5.37;;;;;;;;;;5049720;28;20496;-75
2021/06/11 10:21:54;;;;;;;5.10;4.80;;;;;;;;;;5059540;28;20505;-75
2021/06/11 10:24:21;;;;;;;6.20;5.80;;;;;;;;;;5057213;28;20415;-74
2021/06/11 10:26:48;;;;;;;5.80;5.30;;;;;;;;;;5049795;28;20576;-74
2021/06/11 10:29:16;;;;;;;6.80;6.30;;;;;;;;;;5051032;28;20495;-73
2021/06/11 10:31:42;;;;;;;5.20;4.87;;;;;;;;;;5049711;28;20435;-74
2021/06/11 10:34:08;;;;;;;6.60;6.10;;;;;;;;;;5062716;28;20772;-74
2021/06/11 10:36:39;;;;;;;6.40;5.73;;;;;;;;;;5049635;28;20400;-74
2021/06/11 10:39:08;;;;;;;5.77;5.30;;;;;;;;;;5049581;28;20402;-74
2021/06/11 10:41:53;;;;;;;6.37;5.97;;;;;;;;;;5049585;28;21041;-74
2021/06/11 10:44:32;;;;;;;5.97;5.53;;;;;;;;;;5049434;28;20773;-74
2021/06/11 10:47:16;;;;;;;5.83;5.40;;;;;;;;;;5049510;28;20423;-76
2021/06/11 10:49:58;;;;;;;5.90;5.50;;;;;;;;;;5057076;28;20421;-75
2021/06/11 10:52:36;;;;;;;5.30;4.90;;;;;;;;;;5069500;28;20443;-74
2021/06/11 10:55:14;;;;;;;5.20;4.77;;;;;;;;;;5060730;28;20427;-73
2021/06/11 10:57:41;;;;;;;6.63;4.87;;;;;;;;;;5049146;28;20829;-74
2021/06/11 11:00:27;;;;;;;5.30;4.90;;;;;;;;;;5059316;28;20414;-74
2021/06/11 11:02:54;;;;;;;6.70;6.10;;;;;;;;;;5048901;28;20544;-75
2021/06/11 11:05:29;;;;;;;9.47;5.67;;;;;;;;;;5048946;28;20529;-76
2021/06/11 11:07:55;;;;;;;4.80;4.50;;;;;;;;;;5049071;28;20788;-75
2021/06/11 11:10:42;;;;;;;13.10;6.80;;;;;;;;;;5049584;28;20816;-76
2021/06/11 11:13:09;;;;;;;6.10;5.30;;;;;;;;;;5048572;28;20415;-75
2021/06/11 11:15:37;;;;;;;6.10;5.70;;;;;;;;;;5048991;28;20476;-73
2021/06/11 11:18:06;;;;;;;4.90;4.60;;;;;;;;;;5048685;28;20418;-76
2021/06/11 11:20:34;;;;;;;4.73;4.20;;;;;;;;;;5049012;28;20427;-77
2021/06/11 11:23:01;;;;;;;6.23;5.53;;;;;;;;;;5067539;28;20545;-75
2021/06/11 11:25:28;;;;;;;4.63;4.23;;;;;;;;;;5054159;28;20450;-74
2021/06/11 11:27:55;;;;;;;5.00;4.60;;;;;;;;;;5051571;28;20480;-76
2021/06/11 11:30:24;;;;;;;4.67;3.63;;;;;;;;;;5048943;28;20820;-74
2021/06/11 11:32:50;;;;;;;3.80;3.50;;;;;;;;;;5061587;28;20421;-76
2021/06/11 11:35:18;;;;;;;4.20;3.90;;;;;;;;;;5048625;28;21056;-78
2021/06/11 11:37:44;;;;;;;4.90;4.50;;;;;;;;;;5049428;28;20411;-76
2021/06/11 11:40:11;;;;;;;4.67;4.37;;;;;;;;;;5049017;28;20419;-77
2021/06/11 11:42:37;;;;;;;3.90;3.60;;;;;;;;;;5048581;28;20901;-75
2021/06/11 11:45:03;;;;;;;4.60;4.10;;;;;;;;;;5048734;28;20446;-78
2021/06/11 11:47:29;;;;;;;4.60;4.30;;;;;;;;;;5056579;28;20477;-77
2021/06/11 11:49:55;;;;;;;4.23;3.93;;;;;;;;;;5048854;28;20420;-77
2021/06/11 11:52:21;;;;;;;4.57;4.17;;;;;;;;;;5048084;28;20435;-77
2021/06/11 11:54:47;;;;;;;4.50;4.10;;;;;;;;;;5047175;28;21043;-77
2021/06/11 11:57:14;;;;;;;4.30;3.87;;;;;;;;;;5048762;28;20434;-77
2021/06/11 11:59:40;;;;;;;4.30;3.90;;;;;;;;;;5054755;28;21073;-78
2021/06/11 12:02:09;;;;;;;5.13;3.50;;;;;;;;;;5051576;28;20587;-75
2021/06/11 12:04:35;;;;;;;5.07;4.07;;;;;;;;;;5048340;28;20967;-78
2021/06/11 12:07:01;;;;;;;5.50;4.33;;;;;;;;;;5048189;28;20435;-76
2021/06/11 12:09:27;;;;;;;4.00;3.60;;;;;;;;;;5048548;28;20971;-75
2021/06/11 12:11:53;;;;;;;4.70;4.33;;;;;;;;;;5048224;28;20442;-76
2021/06/11 12:14:19;;;;;;;5.43;5.03;;;;;;;;;;5048672;28;20899;-77
2021/06/11 12:16:45;;;;;;;4.40;4.10;;;;;;;;;;5048495;28;20446;-77
2021/06/11 12:19:11;;;;;;;4.20;3.90;;;;;;;;;;5047062;28;20442;-76
2021/06/11 12:21:37;;;;;;;4.70;4.23;;;;;;;;;;5055995;28;20438;-76
2021/06/11 12:24:04;;;;;;;3.87;3.47;;;;;;;;;;5071210;28;20458;-74
2021/06/11 12:26:30;;;;;;;4.20;3.90;;;;;;;;;;5072018;28;20441;-76
2021/06/11 12:28:56;;;;;;;3.87;3.50;;;;;;;;;;5061992;28;20773;-77
2021/06/11 12:31:23;;;;;;;4.27;3.97;;;;;;;;;;5052390;28;20450;-77
2021/06/11 12:33:49;;;;;;;4.93;3.30;;;;;;;;;;5065212;28;20411;-76
2021/06/11 12:36:15;;;;;;;3.90;3.60;;;;;;;;;;5051903;28;20415;-77
2021/06/11 12:38:41;;;;;;;3.60;3.30;;;;;;;;;;5051769;28;20935;-75
2021/06/11 12:41:09;;;;;;;5.00;3.40;;;;;;;;;;5053665;28;20439;-79
2021/06/11 12:46:24;;;;;;;4.07;2.97;;;;;;;;;;5051837;28;20410;-76
2021/06/11 12:48:51;;;;;;;3.60;3.30;;;;;;;;;;5051532;28;20465;-76
2021/06/11 12:51:17;;;;;;;10.17;3.80;;;;;;;;;;5051520;28;20484;-77
2021/06/11 12:53:43;;;;;;;4.00;3.70;;;;;;;;;;5051172;28;21000;-76
2021/06/11 12:56:09;;;;;;;3.90;3.60;;;;;;;;;;5051366;28;20816;-78
2021/06/11 12:58:35;;;;;;;3.77;3.40;;;;;;;;;;5051363;28;20490;-78
2021/06/11 13:01:01;;;;;;;5.60;3.80;;;;;;;;;;5061726;28;20524;-76
2021/06/11 13:03:28;;;;;;;3.90;3.50;;;;;;;;;;5051088;28;20493;-75
2021/06/11 13:05:54;;;;;;;3.97;3.53;;;;;;;;;;5051251;28;20432;-77
2021/06/11 13:08:20;;;;;;;4.53;3.30;;;;;;;;;;5054097;28;21474;-75
2021/06/11 13:10:49;;;;;;;4.13;3.57;;;;;;;;;;5051916;28;20446;-77
2021/06/11 13:13:15;;;;;;;4.30;3.90;;;;;;;;;;5055787;28;20480;-76
2021/06/11 13:15:41;;;;;;;4.27;3.97;;;;;;;;;;5050982;28;20411;-76
2021/06/11 13:18:08;;;;;;;5.70;4.27;;;;;;;;;;5051131;28;20489;-77
2021/06/11 13:20:36;;;;;;;4.47;4.07;;;;;;;;;;5051155;28;20896;-77
2021/06/11 13:23:05;;;;;;;4.83;4.03;;;;;;;;;;5063142;28;20543;-75
2021/06/11 13:25:31;;;;;;;5.73;4.20;;;;;;;;;;5070433;28;20542;-75
2021/06/11 13:27:57;;;;;;;3.87;3.57;;;;;;;;;;5070575;28;20438;-78
2021/06/11 13:30:23;;;;;;;3.57;3.27;;;;;;;;;;5054591;28;20904;-76
2021/06/11 13:32:49;;;;;;;4.30;4.00;;;;;;;;;;5049227;28;20432;-77
2021/06/11 13:35:15;;;;;;;4.03;3.63;;;;;;;;;;5049775;28;20637;-76
2021/06/11 13:37:41;;;;;;;4.93;4.40;;;;;;;;;;5050433;28;20469;-76
2021/06/11 13:40:07;;;;;;;4.10;3.70;;;;;;;;;;5050571;28;20424;-76
2021/06/11 13:42:33;;;;;;;4.27;3.70;;;;;;;;;;5055297;28;20586;-76
2021/06/11 13:44:59;;;;;;;3.70;3.40;;;;;;;;;;5050100;28;20415;-76
2021/06/11 13:47:25;;;;;;;4.40;3.97;;;;;;;;;;5050499;28;20420;-77
2021/06/11 13:49:51;;;;;;;3.43;3.13;;;;;;;;;;5050298;28;20514;-76
2021/06/11 13:52:18;;;;;;;3.70;3.33;;;;;;;;;;5050226;28;20535;-75
2021/06/11 13:54:43;;;;;;;4.23;3.73;;;;;;;;;;5050248;28;20853;-76
2021/06/11 13:57:10;;;;;;;4.03;3.67;;;;;;;;;;5050151;28;20419;-75
2021/06/11 13:59:36;;;;;;;4.23;3.47;;;;;;;;;;5053895;28;20884;-76
2021/06/11 14:02:02;;;;;;;3.47;3.17;;;;;;;;;;5050080;28;20463;-75
2021/06/11 14:04:28;;;;;;;3.67;2.93;;;;;;;;;;5049885;28;20882;-75
2021/06/11 14:06:54;;;;;;;3.80;3.27;;;;;;;;;;5050579;28;20459;-75
2021/06/11 14:09:20;;;;;;;3.63;3.23;;;;;;;;;;5049917;28;20781;-76
2021/06/11 14:11:46;;;;;;;3.30;2.80;;;;;;;;;;5054113;28;20430;-76
2021/06/11 14:14:12;;;;;;;4.60;2.80;;;;;;;;;;5056850;28;21425;-76
2021/06/11 14:16:38;;;;;;;3.70;2.80;;;;;;;;;;5049964;28;20424;-76
2021/06/11 14:19:04;;;;;;;3.40;3.10;;;;;;;;;;5049569;28;20443;-76
2021/06/11 14:21:31;;;;;;;4.20;3.77;;;;;;;;;;5049897;28;20443;-76
2021/06/11 14:23:57;;;;;;;5.50;3.60;;;;;;;;;;5053409;28;20465;-75
2021/06/11 14:26:23;;;;;;;5.07;3.53;;;;;;;;;;5059057;28;20414;-75
2021/06/11 14:28:49;;;;;;;3.50;3.27;;;;;;;;;;5062946;28;20907;-75
2021/06/11 14:31:17;;;;;;;5.37;3.47;;;;;;;;;;5049756;28;20481;-74